Información del aeropuerto VTBS

Información de pista
Pista 01L Longitud 12139 ft Anchura 197 ft
Elevación 0 ft Umbral 0 ft Rumbo 14
Pista 19R Longitud 12139 ft Anchura 197 ft
Elevación 0 ft Umbral 0 ft Rumbo 194
Pista 01R Longitud 13123 ft Anchura 197 ft
Elevación 0 ft Umbral 0 ft Rumbo 14
Pista 19L Longitud 13123 ft Anchura 197 ft
Elevación 0 ft Umbral 0 ft Rumbo 194
Frecuencias del aeropuerto
Tipo ATIS Nombre Frecuencia 127.8 MHZ
Tipo GROUND (EA Nombre Frecuencia 121.65 MHZ
Tipo GROUND (MA Nombre Frecuencia 121.75 MHZ
Tipo GROUND (WE Nombre Frecuencia 121.95 MHZ
Tipo TOWER (01L Nombre Frecuencia 119 MHZ
Tipo TOWER (01R Nombre Frecuencia 118.2 MHZ
Radioayudas del aeropuerto
Tipo VOR-DME Nombre Suvarnabhumi Intl Frecuencia 111400 KHZ
Información meteorológica del aeropuerto y NOTAM
ADDS - METARS form results

(0323 UTC 31 July 2021)
Data provider http://aviationweather.gov/metar/data/
 
METAR text: VTBS 310300Z 20008KT 170V230 9999 FEW020 SCT035 32/24 Q1008 NOSIG
Conditions at: VTBS (CHON BURI/SATTAH, TH) observed 0300 UTC 31 July 2021
Temperature: 32.0°C (90°F)
Dewpoint: 24.0°C (75°F) [RH = 63%]
Pressure (altimeter): 29.76 inches Hg (1008.0 mb)
Winds: from the SSW (200 degrees) at 9 MPH (8 knots; 4.1 m/s)
Visibility: 6 or more miles (10+ km)
Ceiling: at least 12,000 feet AGL
Clouds: few clouds at 2000 feet AGL
scattered clouds at 3500 feet AGL
Weather: no significant weather observed at this time

METAR text: VTBS 310230Z 22007KT 190V260 9999 SCT020 31/24 Q1008 NOSIG
Conditions at: VTBS (CHON BURI/SATTAH, TH) observed 0230 UTC 31 July 2021
Temperature: 31.0°C (88°F)
Dewpoint: 24.0°C (75°F) [RH = 66%]
Pressure (altimeter): 29.76 inches Hg (1008.0 mb)
Winds: from the SW (220 degrees) at 8 MPH (7 knots; 3.6 m/s)
Visibility: 6 or more miles (10+ km)
Ceiling: at least 12,000 feet AGL
Clouds: scattered clouds at 2000 feet AGL
Weather: no significant weather observed at this time

Forecast for: VTBS (CHON BURI/SATTAH, TH)
Text: TAF VTBS 302300Z 3100/0106 21010KT 9000 FEW020 SCT080
Forecast period: 0000 UTC 31 July 2021 to 0600 UTC 01 August 2021
Forecast type: FROM: standard forecast or significant change
Winds: from the SSW (210 degrees) at 12 MPH (10 knots; 5.1 m/s)
Visibility: 6 miles (9 km)
Ceiling: at least 12,000 feet AGL
Clouds: few clouds at 2000 feet AGL
scattered clouds at 8000 feet AGL
Weather: no significant weather forecast for this period
Text: TEMPO 3106/3112 28010G25KT 4000 TSRA FEW018CB SCT030 BKN080
Forecast period: 0600 to 1200 UTC 31 July 2021
Forecast type: TEMPORARY: The following changes expected for less than half the time period
Winds: from the W (280 degrees) at 12 MPH (10 knots; 5.1 m/s)
gusting to 29 MPH (25 knots; 12.9 m/s)
Visibility: 2.49 miles (4.01 km)
Ceiling: 8000 feet AGL
Clouds: few clouds at 1800 feet AGL
scattered clouds at 3000 feet AGL
broken clouds at 8000 feet AGL
Weather: TSRA  (rain associated with thunderstorm(s))